sensor_id;sensor_type;location;lat;lon;timestamp;temperature;humidity
18613;DHT22;9436;52.152;21.032;2023-03-11T00:01:06;10.00;99.90
18613;DHT22;9436;52.152;21.032;2023-03-11T00:03:34;9.90;99.90
18613;DHT22;9436;52.152;21.032;2023-03-11T00:06:01;9.90;99.90
18613;DHT22;9436;52.152;21.032;2023-03-11T00:08:28;9.90;99.90
18613;DHT22;9436;52.152;21.032;2023-03-11T00:10:57;9.90;99.90
18613;DHT22;9436;52.152;21.032;2023-03-11T00:13:26;9.80;99.90
18613;DHT22;9436;52.152;21.032;2023-03-11T00:15:54;9.80;99.90
18613;DHT22;9436;52.152;21.032;2023-03-11T00:18:23;9.90;99.90
18613;DHT22;9436;52.152;21.032;2023-03-11T00:20:51;9.80;99.90
18613;DHT22;9436;52.152;21.032;2023-03-11T00:23:19;9.80;99.90
18613;DHT22;9436;52.152;21.032;2023-03-11T00:25:46;9.90;99.90
18613;DHT22;9436;52.152;21.032;2023-03-11T00:28:14;9.90;99.90
18613;DHT22;9436;52.152;21.032;2023-03-11T00:30:42;9.90;99.90
18613;DHT22;9436;52.152;21.032;2023-03-11T00:33:11;9.80;99.90
18613;DHT22;9436;52.152;21.032;2023-03-11T00:35:40;9.80;99.90
18613;DHT22;9436;52.152;21.032;2023-03-11T00:38:11;9.80;99.90
18613;DHT22;9436;52.152;21.032;2023-03-11T00:40:40;9.70;99.90
18613;DHT22;9436;52.152;21.032;2023-03-11T00:43:07;9.70;99.90
18613;DHT22;9436;52.152;21.032;2023-03-11T00:45:34;9.70;99.90
18613;DHT22;9436;52.152;21.032;2023-03-11T00:48:01;9.70;99.90
18613;DHT22;9436;52.152;21.032;2023-03-11T00:50:29;9.80;99.90
18613;DHT22;9436;52.152;21.032;2023-03-11T00:52:59;9.70;99.90
18613;DHT22;9436;52.152;21.032;2023-03-11T00:55:28;9.70;99.90
18613;DHT22;9436;52.152;21.032;2023-03-11T00:57:57;9.70;99.90
18613;DHT22;9436;52.152;21.032;2023-03-11T01:00:26;9.70;99.90
18613;DHT22;9436;52.152;21.032;2023-03-11T01:02:54;9.60;99.90
18613;DHT22;9436;52.152;21.032;2023-03-11T01:05:23;9.60;99.90
18613;DHT22;9436;52.152;21.032;2023-03-11T01:07:50;9.50;99.90
18613;DHT22;9436;52.152;21.032;2023-03-11T01:10:19;9.60;99.90
18613;DHT22;9436;52.152;21.032;2023-03-11T01:12:46;9.50;99.90
18613;DHT22;9436;52.152;21.032;2023-03-11T01:15:17;9.50;99.90
18613;DHT22;9436;52.152;21.032;2023-03-11T01:17:45;9.50;99.90
18613;DHT22;9436;52.152;21.032;2023-03-11T01:20:12;9.40;99.90
18613;DHT22;9436;52.152;21.032;2023-03-11T01:22:39;9.40;99.90
18613;DHT22;9436;52.152;21.032;2023-03-11T01:25:06;9.40;99.90
18613;DHT22;9436;52.152;21.032;2023-03-11T01:27:36;9.30;99.90
18613;DHT22;9436;52.152;21.032;2023-03-11T01:30:03;9.20;99.90
18613;DHT22;9436;52.152;21.032;2023-03-11T01:32:30;9.20;99.90
18613;DHT22;9436;52.152;21.032;2023-03-11T01:34:57;9.20;99.90
18613;DHT22;9436;52.152;21.032;2023-03-11T01:37:24;9.20;99.90
18613;DHT22;9436;52.152;21.032;2023-03-11T01:39:51;9.20;99.90
18613;DHT22;9436;52.152;21.032;2023-03-11T01:42:18;9.10;99.90
18613;DHT22;9436;52.152;21.032;2023-03-11T01:44:46;9.10;99.90
18613;DHT22;9436;52.152;21.032;2023-03-11T01:47:34;9.00;99.90
18613;DHT22;9436;52.152;21.032;2023-03-11T01:50:03;8.90;99.90
18613;DHT22;9436;52.152;21.032;2023-03-11T01:52:31;8.90;99.90
18613;DHT22;9436;52.152;21.032;2023-03-11T01:54:58;8.90;99.90
18613;DHT22;9436;52.152;21.032;2023-03-11T01:57:25;8.90;99.90
18613;DHT22;9436;52.152;21.032;2023-03-11T01:59:55;8.90;99.90
18613;DHT22;9436;52.152;21.032;2023-03-11T02:02:29;8.80;99.90
18613;DHT22;9436;52.152;21.032;2023-03-11T02:04:59;8.80;99.90
18613;DHT22;9436;52.152;21.032;2023-03-11T02:07:27;8.70;99.90
18613;DHT22;9436;52.152;21.032;2023-03-11T02:09:54;8.70;99.90
18613;DHT22;9436;52.152;21.032;2023-03-11T02:12:21;8.70;99.90
18613;DHT22;9436;52.152;21.032;2023-03-11T02:14:50;8.60;99.90
18613;DHT22;9436;52.152;21.032;2023-03-11T02:17:20;8.60;99.90
18613;DHT22;9436;52.152;21.032;2023-03-11T02:20:07;8.60;99.90
18613;DHT22;9436;52.152;21.032;2023-03-11T02:22:39;8.50;99.90
18613;DHT22;9436;52.152;21.032;2023-03-11T02:25:13;8.40;99.90
18613;DHT22;9436;52.152;21.032;2023-03-11T02:27:47;8.40;99.90
18613;DHT22;9436;52.152;21.032;2023-03-11T02:30:15;8.30;99.90
18613;DHT22;9436;52.152;21.032;2023-03-11T02:32:44;8.30;99.90
18613;DHT22;9436;52.152;21.032;2023-03-11T02:35:13;8.30;99.90
18613;DHT22;9436;52.152;21.032;2023-03-11T02:37:44;8.30;99.90
18613;DHT22;9436;52.152;21.032;2023-03-11T02:40:33;8.30;99.90
18613;DHT22;9436;52.152;21.032;2023-03-11T02:43:05;8.20;99.90
18613;DHT22;9436;52.152;21.032;2023-03-11T02:45:32;8.20;99.90
18613;DHT22;9436;52.152;21.032;2023-03-11T02:48:00;8.20;99.90
18613;DHT22;9436;52.152;21.032;2023-03-11T02:50:28;8.20;99.90
18613;DHT22;9436;52.152;21.032;2023-03-11T02:52:55;8.10;99.90
18613;DHT22;9436;52.152;21.032;2023-03-11T02:55:22;8.10;99.90
18613;DHT22;9436;52.152;21.032;2023-03-11T02:57:49;8.10;99.90
18613;DHT22;9436;52.152;21.032;2023-03-11T03:00:18;7.90;99.90
18613;DHT22;9436;52.152;21.032;2023-03-11T03:02:45;7.80;99.90
18613;DHT22;9436;52.152;21.032;2023-03-11T03:05:17;7.80;99.90
18613;DHT22;9436;52.152;21.032;2023-03-11T03:07:45;7.80;99.90
18613;DHT22;9436;52.152;21.032;2023-03-11T03:10:13;7.80;99.90
18613;DHT22;9436;52.152;21.032;2023-03-11T03:12:40;7.70;99.90
18613;DHT22;9436;52.152;21.032;2023-03-11T03:15:08;7.70;99.90
18613;DHT22;9436;52.152;21.032;2023-03-11T03:17:37;7.70;99.90
18613;DHT22;9436;52.152;21.032;2023-03-11T03:20:06;7.60;99.90
18613;DHT22;9436;52.152;21.032;2023-03-11T03:22:36;7.60;99.90
18613;DHT22;9436;52.152;21.032;2023-03-11T03:25:03;7.50;99.90
18613;DHT22;9436;52.152;21.032;2023-03-11T03:27:31;7.50;99.90
18613;DHT22;9436;52.152;21.032;2023-03-11T03:29:59;7.40;99.90
18613;DHT22;9436;52.152;21.032;2023-03-11T03:32:26;7.40;99.90
18613;DHT22;9436;52.152;21.032;2023-03-11T03:34:54;7.40;99.90
18613;DHT22;9436;52.152;21.032;2023-03-11T03:37:24;7.40;99.90
18613;DHT22;9436;52.152;21.032;2023-03-11T03:39:51;7.40;99.90
18613;DHT22;9436;52.152;21.032;2023-03-11T03:42:18;7.30;99.90
18613;DHT22;9436;52.152;21.032;2023-03-11T03:44:45;7.30;99.90
18613;DHT22;9436;52.152;21.032;2023-03-11T03:47:12;7.30;99.90
18613;DHT22;9436;52.152;21.032;2023-03-11T03:49:39;7.30;99.90
18613;DHT22;9436;52.152;21.032;2023-03-11T03:52:07;7.30;99.90
18613;DHT22;9436;52.152;21.032;2023-03-11T03:54:35;7.40;99.90
18613;DHT22;9436;52.152;21.032;2023-03-11T03:57:02;7.50;99.90
18613;DHT22;9436;52.152;21.032;2023-03-11T03:59:30;7.50;99.90
18613;DHT22;9436;52.152;21.032;2023-03-11T04:01:57;7.50;99.90
18613;DHT22;9436;52.152;21.032;2023-03-11T04:04:24;7.50;99.90
18613;DHT22;9436;52.152;21.032;2023-03-11T04:06:51;7.50;99.90
18613;DHT22;9436;52.152;21.032;2023-03-11T04:09:19;7.50;99.90
18613;DHT22;9436;52.152;21.032;2023-03-11T04:11:46;7.60;99.90
18613;DHT22;9436;52.152;21.032;2023-03-11T04:14:13;7.70;99.90
18613;DHT22;9436;52.152;21.032;2023-03-11T04:16:40;7.70;99.90
18613;DHT22;9436;52.152;21.032;2023-03-11T04:19:07;7.80;99.90
18613;DHT22;9436;52.152;21.032;2023-03-11T04:21:34;7.80;99.90
18613;DHT22;9436;52.152;21.032;2023-03-11T04:24:01;7.80;99.90
18613;DHT22;9436;52.152;21.032;2023-03-11T04:26:30;7.80;99.90
18613;DHT22;9436;52.152;21.032;2023-03-11T04:28:57;7.70;99.90
18613;DHT22;9436;52.152;21.032;2023-03-11T04:31:24;7.70;99.90
18613;DHT22;9436;52.152;21.032;2023-03-11T04:33:51;7.60;99.90
18613;DHT22;9436;52.152;21.032;2023-03-11T04:36:19;7.70;99.90
18613;DHT22;9436;52.152;21.032;2023-03-11T04:38:46;7.60;99.90
18613;DHT22;9436;52.152;21.032;2023-03-11T04:41:13;7.60;99.90
18613;DHT22;9436;52.152;21.032;2023-03-11T04:43:41;7.60;99.90
18613;DHT22;9436;52.152;21.032;2023-03-11T04:46:08;7.70;99.90
18613;DHT22;9436;52.152;21.032;2023-03-11T04:48:35;7.70;99.90
18613;DHT22;9436;52.152;21.032;2023-03-11T04:51:02;7.80;99.90
18613;DHT22;9436;52.152;21.032;2023-03-11T04:53:29;7.80;99.90
18613;DHT22;9436;52.152;21.032;2023-03-11T04:55:56;7.80;99.90
18613;DHT22;9436;52.152;21.032;2023-03-11T04:58:23;7.80;99.90
18613;DHT22;9436;52.152;21.032;2023-03-11T05:00:51;7.80;99.90
18613;DHT22;9436;52.152;21.032;2023-03-11T05:03:18;7.90;99.90
18613;DHT22;9436;52.152;21.032;2023-03-11T05:05:45;8.00;99.90
18613;DHT22;9436;52.152;21.032;2023-03-11T05:08:12;8.00;99.90
18613;DHT22;9436;52.152;21.032;2023-03-11T05:10:40;8.00;99.90
18613;DHT22;9436;52.152;21.032;2023-03-11T05:13:07;7.90;99.90
18613;DHT22;9436;52.152;21.032;2023-03-11T05:15:34;7.90;99.90
18613;DHT22;9436;52.152;21.032;2023-03-11T05:18:03;8.00;99.90
18613;DHT22;9436;52.152;21.032;2023-03-11T05:20:30;8.10;99.90
18613;DHT22;9436;52.152;21.032;2023-03-11T05:22:57;8.20;99.90
18613;DHT22;9436;52.152;21.032;2023-03-11T05:25:24;8.10;99.90
18613;DHT22;9436;52.152;21.032;2023-03-11T05:27:51;8.10;99.90
18613;DHT22;9436;52.152;21.032;2023-03-11T05:30:18;8.10;99.90
18613;DHT22;9436;52.152;21.032;2023-03-11T05:32:45;8.10;99.90
18613;DHT22;9436;52.152;21.032;2023-03-11T05:35:14;8.10;99.90
18613;DHT22;9436;52.152;21.032;2023-03-11T05:37:41;8.10;99.90
18613;DHT22;9436;52.152;21.032;2023-03-11T05:40:10;8.10;99.90
18613;DHT22;9436;52.152;21.032;2023-03-11T05:42:37;8.10;99.90
18613;DHT22;9436;52.152;21.032;2023-03-11T05:45:06;8.10;99.90
18613;DHT22;9436;52.152;21.032;2023-03-11T05:47:33;8.10;99.90
18613;DHT22;9436;52.152;21.032;2023-03-11T05:50:00;8.10;99.90
18613;DHT22;9436;52.152;21.032;2023-03-11T05:52:28;8.10;99.90
18613;DHT22;9436;52.152;21.032;2023-03-11T05:54:57;8.10;99.90
18613;DHT22;9436;52.152;21.032;2023-03-11T05:57:24;8.10;99.90
18613;DHT22;9436;52.152;21.032;2023-03-11T05:59:51;8.10;99.90
18613;DHT22;9436;52.152;21.032;2023-03-11T06:02:18;8.20;99.90
18613;DHT22;9436;52.152;21.032;2023-03-11T06:04:45;8.30;99.90
18613;DHT22;9436;52.152;21.032;2023-03-11T06:07:12;8.30;99.90
18613;DHT22;9436;52.152;21.032;2023-03-11T06:09:42;8.40;99.90
18613;DHT22;9436;52.152;21.032;2023-03-11T06:12:09;8.40;99.90
18613;DHT22;9436;52.152;21.032;2023-03-11T06:14:36;8.40;99.90
18613;DHT22;9436;52.152;21.032;2023-03-11T06:17:03;8.40;99.90
18613;DHT22;9436;52.152;21.032;2023-03-11T06:19:30;8.40;99.90
18613;DHT22;9436;52.152;21.032;2023-03-11T06:21:57;8.40;99.90
18613;DHT22;9436;52.152;21.032;2023-03-11T06:24:24;8.50;99.90
18613;DHT22;9436;52.152;21.032;2023-03-11T06:26:52;8.60;99.90
18613;DHT22;9436;52.152;21.032;2023-03-11T06:29:19;8.70;99.90
18613;DHT22;9436;52.152;21.032;2023-03-11T06:31:48;8.80;99.90
18613;DHT22;9436;52.152;21.032;2023-03-11T06:34:15;8.90;99.90
18613;DHT22;9436;52.152;21.032;2023-03-11T06:36:42;9.00;99.90
18613;DHT22;9436;52.152;21.032;2023-03-11T06:39:12;9.10;99.90
18613;DHT22;9436;52.152;21.032;2023-03-11T06:41:40;9.10;99.90
18613;DHT22;9436;52.152;21.032;2023-03-11T06:44:08;9.20;99.90
18613;DHT22;9436;52.152;21.032;2023-03-11T06:46:35;9.20;99.90
18613;DHT22;9436;52.152;21.032;2023-03-11T06:49:02;9.20;99.90
18613;DHT22;9436;52.152;21.032;2023-03-11T06:51:29;9.20;99.90
18613;DHT22;9436;52.152;21.032;2023-03-11T06:53:56;9.20;99.90
18613;DHT22;9436;52.152;21.032;2023-03-11T06:56:23;9.20;99.90
18613;DHT22;9436;52.152;21.032;2023-03-11T06:58:50;9.20;99.90
18613;DHT22;9436;52.152;21.032;2023-03-11T07:01:21;9.20;99.90
18613;DHT22;9436;52.152;21.032;2023-03-11T07:03:49;9.30;99.90
18613;DHT22;9436;52.152;21.032;2023-03-11T07:06:18;9.40;99.90
18613;DHT22;9436;52.152;21.032;2023-03-11T07:08:45;9.50;99.90
18613;DHT22;9436;52.152;21.032;2023-03-11T07:11:14;9.50;99.90
18613;DHT22;9436;52.152;21.032;2023-03-11T07:13:42;9.50;99.90
18613;DHT22;9436;52.152;21.032;2023-03-11T07:16:11;9.40;99.90
18613;DHT22;9436;52.152;21.032;2023-03-11T07:18:42;9.50;99.90
18613;DHT22;9436;52.152;21.032;2023-03-11T07:21:11;9.50;99.90
18613;DHT22;9436;52.152;21.032;2023-03-11T07:23:39;9.50;99.90
18613;DHT22;9436;52.152;21.032;2023-03-11T07:26:08;9.40;99.90
18613;DHT22;9436;52.152;21.032;2023-03-11T07:28:36;9.40;99.90
18613;DHT22;9436;52.152;21.032;2023-03-11T07:31:07;9.40;99.90
18613;DHT22;9436;52.152;21.032;2023-03-11T07:33:34;9.50;99.90
18613;DHT22;9436;52.152;21.032;2023-03-11T07:36:09;9.40;99.90
18613;DHT22;9436;52.152;21.032;2023-03-11T07:38:37;9.30;99.90
18613;DHT22;9436;52.152;21.032;2023-03-11T07:41:05;9.40;99.90
18613;DHT22;9436;52.152;21.032;2023-03-11T07:43:32;9.40;99.90
18613;DHT22;9436;52.152;21.032;2023-03-11T07:46:04;9.40;99.90
18613;DHT22;9436;52.152;21.032;2023-03-11T07:48:31;9.40;99.90
18613;DHT22;9436;52.152;21.032;2023-03-11T07:51:02;9.40;99.90
18613;DHT22;9436;52.152;21.032;2023-03-11T07:53:31;9.40;99.90
18613;DHT22;9436;52.152;21.032;2023-03-11T07:55:58;9.40;99.90
18613;DHT22;9436;52.152;21.032;2023-03-11T07:58:25;9.40;99.90
18613;DHT22;9436;52.152;21.032;2023-03-11T08:00:53;9.40;99.90
18613;DHT22;9436;52.152;21.032;2023-03-11T08:03:22;9.40;99.90
18613;DHT22;9436;52.152;21.032;2023-03-11T08:05:49;9.30;99.90
18613;DHT22;9436;52.152;21.032;2023-03-11T08:08:17;9.40;99.90
18613;DHT22;9436;52.152;21.032;2023-03-11T08:10:45;9.30;99.90
18613;DHT22;9436;52.152;21.032;2023-03-11T08:13:12;9.10;99.90
18613;DHT22;9436;52.152;21.032;2023-03-11T08:15:39;9.20;99.90
18613;DHT22;9436;52.152;21.032;2023-03-11T08:18:06;9.20;99.90
18613;DHT22;9436;52.152;21.032;2023-03-11T08:20:33;9.10;99.90
18613;DHT22;9436;52.152;21.032;2023-03-11T08:23:00;9.10;99.90
18613;DHT22;9436;52.152;21.032;2023-03-11T08:25:27;9.00;99.90
18613;DHT22;9436;52.152;21.032;2023-03-11T08:27:56;9.10;99.90
18613;DHT22;9436;52.152;21.032;2023-03-11T08:30:23;9.10;99.90
18613;DHT22;9436;52.152;21.032;2023-03-11T08:32:50;9.10;99.90
18613;DHT22;9436;52.152;21.032;2023-03-11T08:35:17;9.00;99.90
18613;DHT22;9436;52.152;21.032;2023-03-11T08:37:44;9.00;99.90
18613;DHT22;9436;52.152;21.032;2023-03-11T08:40:12;8.90;99.90
18613;DHT22;9436;52.152;21.032;2023-03-11T08:42:39;8.80;99.90
18613;DHT22;9436;52.152;21.032;2023-03-11T08:45:09;8.90;99.90
18613;DHT22;9436;52.152;21.032;2023-03-11T08:47:36;8.80;99.90
18613;DHT22;9436;52.152;21.032;2023-03-11T08:50:05;8.80;99.90
18613;DHT22;9436;52.152;21.032;2023-03-11T08:52:32;8.80;99.90
18613;DHT22;9436;52.152;21.032;2023-03-11T08:54:59;8.60;99.90
18613;DHT22;9436;52.152;21.032;2023-03-11T08:57:26;8.60;99.90
18613;DHT22;9436;52.152;21.032;2023-03-11T08:59:53;8.50;99.90
18613;DHT22;9436;52.152;21.032;2023-03-11T09:02:24;8.30;99.90
18613;DHT22;9436;52.152;21.032;2023-03-11T09:04:51;8.30;99.90
18613;DHT22;9436;52.152;21.032;2023-03-11T09:07:18;8.40;99.90
18613;DHT22;9436;52.152;21.032;2023-03-11T09:09:44;8.40;99.90
18613;DHT22;9436;52.152;21.032;2023-03-11T09:12:12;8.40;99.90
18613;DHT22;9436;52.152;21.032;2023-03-11T09:14:39;8.40;99.90
18613;DHT22;9436;52.152;21.032;2023-03-11T09:17:06;8.30;99.90
18613;DHT22;9436;52.152;21.032;2023-03-11T09:19:35;8.30;99.90
18613;DHT22;9436;52.152;21.032;2023-03-11T09:22:03;8.30;99.90
18613;DHT22;9436;52.152;21.032;2023-03-11T09:24:32;8.30;99.90
18613;DHT22;9436;52.152;21.032;2023-03-11T09:26:59;8.30;99.90
18613;DHT22;9436;52.152;21.032;2023-03-11T09:29:26;8.10;99.90
18613;DHT22;9436;52.152;21.032;2023-03-11T09:31:54;8.20;99.90
18613;DHT22;9436;52.152;21.032;2023-03-11T09:34:20;8.20;99.90
18613;DHT22;9436;52.152;21.032;2023-03-11T09:36:49;8.20;99.90
18613;DHT22;9436;52.152;21.032;2023-03-11T09:39:16;8.10;99.90
18613;DHT22;9436;52.152;21.032;2023-03-11T09:41:48;8.10;99.90
18613;DHT22;9436;52.152;21.032;2023-03-11T09:44:19;8.10;99.90
18613;DHT22;9436;52.152;21.032;2023-03-11T09:47:06;8.10;99.90
18613;DHT22;9436;52.152;21.032;2023-03-11T09:49:42;8.00;99.90
18613;DHT22;9436;52.152;21.032;2023-03-11T09:52:14;8.10;99.90
18613;DHT22;9436;52.152;21.032;2023-03-11T09:54:44;7.90;99.90
18613;DHT22;9436;52.152;21.032;2023-03-11T09:57:15;7.90;99.90
18613;DHT22;9436;52.152;21.032;2023-03-11T09:59:44;7.80;99.90
18613;DHT22;9436;52.152;21.032;2023-03-11T10:02:15;7.60;99.90
18613;DHT22;9436;52.152;21.032;2023-03-11T10:04:50;7.40;99.90
18613;DHT22;9436;52.152;21.032;2023-03-11T10:07:24;7.00;99.90
18613;DHT22;9436;52.152;21.032;2023-03-11T10:09:54;6.70;99.90
18613;DHT22;9436;52.152;21.032;2023-03-11T10:12:36;6.50;99.90
18613;DHT22;9436;52.152;21.032;2023-03-11T10:15:15;6.30;99.90
18613;DHT22;9436;52.152;21.032;2023-03-11T10:17:59;6.20;99.90
18613;DHT22;9436;52.152;21.032;2023-03-11T10:20:33;6.00;99.90
18613;DHT22;9436;52.152;21.032;2023-03-11T10:23:12;5.80;99.90
18613;DHT22;9436;52.152;21.032;2023-03-11T10:25:49;5.40;99.90
18613;DHT22;9436;52.152;21.032;2023-03-11T10:28:21;5.40;99.90
18613;DHT22;9436;52.152;21.032;2023-03-11T10:30:52;5.20;99.90
18613;DHT22;9436;52.152;21.032;2023-03-11T10:33:25;5.20;99.90
18613;DHT22;9436;52.152;21.032;2023-03-11T10:35:55;5.20;99.90
18613;DHT22;9436;52.152;21.032;2023-03-11T10:38:27;5.10;99.90
18613;DHT22;9436;52.152;21.032;2023-03-11T10:40:59;5.10;99.90
18613;DHT22;9436;52.152;21.032;2023-03-11T10:43:30;5.00;99.90
18613;DHT22;9436;52.152;21.032;2023-03-11T10:45:58;4.90;99.90
18613;DHT22;9436;52.152;21.032;2023-03-11T10:48:25;4.90;99.90
18613;DHT22;9436;52.152;21.032;2023-03-11T10:50:56;4.80;99.90
18613;DHT22;9436;52.152;21.032;2023-03-11T10:53:28;4.60;99.90
18613;DHT22;9436;52.152;21.032;2023-03-11T10:55:57;4.60;99.90
18613;DHT22;9436;52.152;21.032;2023-03-11T10:58:27;4.50;99.90
18613;DHT22;9436;52.152;21.032;2023-03-11T11:01:13;4.50;99.90
18613;DHT22;9436;52.152;21.032;2023-03-11T11:03:41;4.20;99.90
18613;DHT22;9436;52.152;21.032;2023-03-11T11:06:20;4.00;99.90
18613;DHT22;9436;52.152;21.032;2023-03-11T11:09:03;3.90;99.90
18613;DHT22;9436;52.152;21.032;2023-03-11T11:11:31;3.80;99.90
18613;DHT22;9436;52.152;21.032;2023-03-11T11:13:59;3.70;99.90
18613;DHT22;9436;52.152;21.032;2023-03-11T11:16:27;3.70;99.90
18613;DHT22;9436;52.152;21.032;2023-03-11T11:18:58;3.70;99.90
18613;DHT22;9436;52.152;21.032;2023-03-11T11:21:30;3.70;99.90
18613;DHT22;9436;52.152;21.032;2023-03-11T11:24:13;3.60;99.90
18613;DHT22;9436;52.152;21.032;2023-03-11T11:26:42;3.50;99.90
18613;DHT22;9436;52.152;21.032;2023-03-11T11:29:13;3.30;99.90
18613;DHT22;9436;52.152;21.032;2023-03-11T11:31:42;3.30;99.90
18613;DHT22;9436;52.152;21.032;2023-03-11T11:34:36;3.30;99.90
18613;DHT22;9436;52.152;21.032;2023-03-11T11:37:04;3.10;99.90
18613;DHT22;9436;52.152;21.032;2023-03-11T11:39:39;3.10;99.90
18613;DHT22;9436;52.152;21.032;2023-03-11T11:42:16;3.00;99.90
18613;DHT22;9436;52.152;21.032;2023-03-11T11:44:46;3.00;99.90
18613;DHT22;9436;52.152;21.032;2023-03-11T11:47:17;3.00;99.90
18613;DHT22;9436;52.152;21.032;2023-03-11T11:49:51;3.00;99.90
18613;DHT22;9436;52.152;21.032;2023-03-11T11:52:20;3.00;99.90
18613;DHT22;9436;52.152;21.032;2023-03-11T11:54:52;3.00;99.90
18613;DHT22;9436;52.152;21.032;2023-03-11T11:57:21;3.00;99.90
18613;DHT22;9436;52.152;21.032;2023-03-11T11:59:49;2.90;99.90
18613;DHT22;9436;52.152;21.032;2023-03-11T12:02:29;3.00;99.90
18613;DHT22;9436;52.152;21.032;2023-03-11T12:05:05;3.00;99.90
18613;DHT22;9436;52.152;21.032;2023-03-11T12:07:46;3.00;99.90
18613;DHT22;9436;52.152;21.032;2023-03-11T12:10:26;3.00;99.90
18613;DHT22;9436;52.152;21.032;2023-03-11T12:13:13;3.10;99.90
18613;DHT22;9436;52.152;21.032;2023-03-11T12:15:47;3.10;99.90
18613;DHT22;9436;52.152;21.032;2023-03-11T12:18:18;2.90;99.90
18613;DHT22;9436;52.152;21.032;2023-03-11T12:20:48;2.80;99.90
18613;DHT22;9436;52.152;21.032;2023-03-11T12:23:19;2.60;99.90
18613;DHT22;9436;52.152;21.032;2023-03-11T12:26:03;2.40;99.90
18613;DHT22;9436;52.152;21.032;2023-03-11T12:28:40;2.40;99.90
18613;DHT22;9436;52.152;21.032;2023-03-11T12:31:10;2.30;99.90
18613;DHT22;9436;52.152;21.032;2023-03-11T12:33:39;2.40;99.90
18613;DHT22;9436;52.152;21.032;2023-03-11T12:36:20;2.30;99.90
18613;DHT22;9436;52.152;21.032;2023-03-11T12:38:48;2.30;99.90
18613;DHT22;9436;52.152;21.032;2023-03-11T12:41:32;2.30;99.90
18613;DHT22;9436;52.152;21.032;2023-03-11T12:44:23;2.20;99.90
18613;DHT22;9436;52.152;21.032;2023-03-11T12:53:02;2.20;99.90
18613;DHT22;9436;52.152;21.032;2023-03-11T12:55:32;2.10;99.90
18613;DHT22;9436;52.152;21.032;2023-03-11T13:01:09;2.10;99.90
18613;DHT22;9436;52.152;21.032;2023-03-11T13:03:48;2.20;99.90
18613;DHT22;9436;52.152;21.032;2023-03-11T13:06:41;2.20;99.90
18613;DHT22;9436;52.152;21.032;2023-03-11T13:09:15;2.30;99.90
18613;DHT22;9436;52.152;21.032;2023-03-11T13:11:44;2.20;99.90
18613;DHT22;9436;52.152;21.032;2023-03-11T13:14:22;2.20;99.90
18613;DHT22;9436;52.152;21.032;2023-03-11T13:16:54;2.20;99.90
18613;DHT22;9436;52.152;21.032;2023-03-11T13:19:46;2.10;99.90
18613;DHT22;9436;52.152;21.032;2023-03-11T13:25:39;2.00;99.90
18613;DHT22;9436;52.152;21.032;2023-03-11T13:28:26;2.00;99.90
18613;DHT22;9436;52.152;21.032;2023-03-11T13:31:12;2.00;99.90
18613;DHT22;9436;52.152;21.032;2023-03-11T13:33:48;2.10;99.90
18613;DHT22;9436;52.152;21.032;2023-03-11T13:36:27;2.00;99.90
18613;DHT22;9436;52.152;21.032;2023-03-11T13:39:07;2.10;99.90
18613;DHT22;9436;52.152;21.032;2023-03-11T13:41:40;2.10;99.90
18613;DHT22;9436;52.152;21.032;2023-03-11T13:44:14;2.10;99.90
18613;DHT22;9436;52.152;21.032;2023-03-11T13:46:45;2.00;99.90
18613;DHT22;9436;52.152;21.032;2023-03-11T13:49:24;1.90;99.90
18613;DHT22;9436;52.152;21.032;2023-03-11T13:51:53;1.90;99.90
18613;DHT22;9436;52.152;21.032;2023-03-11T13:54:37;1.90;99.90
18613;DHT22;9436;52.152;21.032;2023-03-11T13:57:10;1.80;99.90
18613;DHT22;9436;52.152;21.032;2023-03-11T13:59:42;1.70;99.90
18613;DHT22;9436;52.152;21.032;2023-03-11T14:02:16;1.70;99.90
18613;DHT22;9436;52.152;21.032;2023-03-11T14:04:49;1.70;99.90
18613;DHT22;9436;52.152;21.032;2023-03-11T14:07:23;1.70;99.90
18613;DHT22;9436;52.152;21.032;2023-03-11T14:09:50;1.60;99.90
18613;DHT22;9436;52.152;21.032;2023-03-11T14:12:17;1.60;99.90
18613;DHT22;9436;52.152;21.032;2023-03-11T14:14:46;1.50;99.90
18613;DHT22;9436;52.152;21.032;2023-03-11T14:17:18;1.60;99.90
18613;DHT22;9436;52.152;21.032;2023-03-11T14:20:02;1.60;99.90
18613;DHT22;9436;52.152;21.032;2023-03-11T14:22:31;1.60;99.90
18613;DHT22;9436;52.152;21.032;2023-03-11T14:25:00;1.60;99.90
18613;DHT22;9436;52.152;21.032;2023-03-11T14:27:30;1.50;99.90
18613;DHT22;9436;52.152;21.032;2023-03-11T14:29:57;1.50;99.90
18613;DHT22;9436;52.152;21.032;2023-03-11T14:32:27;1.70;99.90
18613;DHT22;9436;52.152;21.032;2023-03-11T14:34:55;1.70;99.90
18613;DHT22;9436;52.152;21.032;2023-03-11T14:37:30;1.60;99.90
18613;DHT22;9436;52.152;21.032;2023-03-11T14:39:57;1.80;99.90
18613;DHT22;9436;52.152;21.032;2023-03-11T14:42:26;1.80;99.90
18613;DHT22;9436;52.152;21.032;2023-03-11T14:44:57;1.80;99.90
18613;DHT22;9436;52.152;21.032;2023-03-11T14:47:33;1.70;99.90
18613;DHT22;9436;52.152;21.032;2023-03-11T14:50:04;1.80;99.90
18613;DHT22;9436;52.152;21.032;2023-03-11T14:52:35;1.80;99.90
18613;DHT22;9436;52.152;21.032;2023-03-11T14:55:07;1.80;99.90
18613;DHT22;9436;52.152;21.032;2023-03-11T14:57:39;1.60;99.90
18613;DHT22;9436;52.152;21.032;2023-03-11T15:00:14;1.60;99.90
18613;DHT22;9436;52.152;21.032;2023-03-11T15:02:47;1.60;99.90
18613;DHT22;9436;52.152;21.032;2023-03-11T15:05:20;1.70;99.90
18613;DHT22;9436;52.152;21.032;2023-03-11T15:07:50;1.80;99.90
18613;DHT22;9436;52.152;21.032;2023-03-11T15:10:22;1.90;99.90
18613;DHT22;9436;52.152;21.032;2023-03-11T15:12:49;1.90;99.90
18613;DHT22;9436;52.152;21.032;2023-03-11T15:15:24;1.90;99.90
18613;DHT22;9436;52.152;21.032;2023-03-11T15:17:52;1.90;99.90
18613;DHT22;9436;52.152;21.032;2023-03-11T15:20:24;1.90;99.90
18613;DHT22;9436;52.152;21.032;2023-03-11T15:22:57;1.90;99.90
18613;DHT22;9436;52.152;21.032;2023-03-11T15:25:28;1.90;99.90
18613;DHT22;9436;52.152;21.032;2023-03-11T15:27:55;2.00;99.90
18613;DHT22;9436;52.152;21.032;2023-03-11T15:30:24;2.10;99.90
18613;DHT22;9436;52.152;21.032;2023-03-11T15:32:51;2.10;99.90
18613;DHT22;9436;52.152;21.032;2023-03-11T15:35:20;2.10;99.90
18613;DHT22;9436;52.152;21.032;2023-03-11T15:37:49;2.30;99.90
18613;DHT22;9436;52.152;21.032;2023-03-11T15:40:23;2.30;99.90
18613;DHT22;9436;52.152;21.032;2023-03-11T15:43:17;2.30;99.90
18613;DHT22;9436;52.152;21.032;2023-03-11T15:45:45;2.20;99.90
18613;DHT22;9436;52.152;21.032;2023-03-11T15:48:13;2.20;99.90
18613;DHT22;9436;52.152;21.032;2023-03-11T15:50:46;2.20;99.90
18613;DHT22;9436;52.152;21.032;2023-03-11T15:53:14;2.00;99.90
18613;DHT22;9436;52.152;21.032;2023-03-11T15:55:42;2.00;99.90
18613;DHT22;9436;52.152;21.032;2023-03-11T15:58:11;2.10;99.90
18613;DHT22;9436;52.152;21.032;2023-03-11T16:00:41;2.20;99.90
18613;DHT22;9436;52.152;21.032;2023-03-11T16:03:09;2.00;99.90
18613;DHT22;9436;52.152;21.032;2023-03-11T16:05:36;2.10;99.90
18613;DHT22;9436;52.152;21.032;2023-03-11T16:08:03;2.00;99.90
18613;DHT22;9436;52.152;21.032;2023-03-11T16:10:30;2.10;99.90
18613;DHT22;9436;52.152;21.032;2023-03-11T16:12:59;2.00;99.90
18613;DHT22;9436;52.152;21.032;2023-03-11T16:15:28;2.00;99.90